createdAt,value
2023-04-20T00:00:48.808Z,64.03
2023-04-20T00:01:48.831Z,64.03
2023-04-20T00:02:48.965Z,64.13
2023-04-20T00:03:48.940Z,64.03
2023-04-20T00:04:48.780Z,64.03
2023-04-20T00:05:48.760Z,64.03
2023-04-20T00:06:48.802Z,63.93
2023-04-20T00:07:48.714Z,64.03
2023-04-20T00:08:48.725Z,64.03
2023-04-20T00:09:48.694Z,64.03
2023-04-20T00:10:48.681Z,64.03
2023-04-20T00:11:48.671Z,64.03
2023-04-20T00:12:48.658Z,64.03
2023-04-20T00:13:48.666Z,64.03
2023-04-20T00:14:48.665Z,64.03
2023-04-20T00:15:48.626Z,63.93
2023-04-20T00:16:48.667Z,64.03
2023-04-20T00:17:48.699Z,64.03
2023-04-20T00:18:48.593Z,64.03
2023-04-20T00:19:48.582Z,64.03
2023-04-20T00:20:48.597Z,64.03
2023-04-20T00:21:48.567Z,64.03
2023-04-20T00:22:48.572Z,64.03
2023-04-20T00:23:48.542Z,64.03
2023-04-20T00:24:48.537Z,64.03
2023-04-20T00:25:48.516Z,64.03
2023-04-20T00:26:48.536Z,63.93
2023-04-20T00:27:48.502Z,64.13
2023-04-20T00:28:48.484Z,64.13
2023-04-20T00:29:48.490Z,64.03
2023-04-20T00:30:48.483Z,64.03
2023-04-20T00:31:48.461Z,64.03
2023-04-20T00:32:48.482Z,63.93
2023-04-20T00:33:48.430Z,64.03
2023-04-20T00:34:48.444Z,64.03
2023-04-20T00:35:48.404Z,64.03
2023-04-20T00:36:48.416Z,64.03
2023-04-20T00:37:48.385Z,64.03
2023-04-20T00:38:48.457Z,64.03
2023-04-20T00:39:48.369Z,64.03
2023-04-20T00:40:48.352Z,64.03
2023-04-20T00:41:48.377Z,63.93
2023-04-20T00:42:48.330Z,64.03
2023-04-20T00:43:48.321Z,64.03
2023-04-20T00:44:48.310Z,64.03
2023-04-20T00:45:48.345Z,63.93
2023-04-20T00:46:48.329Z,63.93
2023-04-20T00:47:48.314Z,64.03
2023-04-20T00:48:48.262Z,64.03
2023-04-20T00:49:48.258Z,64.03
2023-04-20T00:50:48.246Z,63.93
2023-04-20T00:51:48.253Z,63.93
2023-04-20T00:52:48.222Z,63.93
2023-04-20T00:53:48.218Z,64.03
2023-04-20T00:54:48.223Z,64.03
2023-04-20T00:55:48.195Z,64.03
2023-04-20T00:56:48.198Z,63.93
2023-04-20T00:57:48.191Z,64.03
2023-04-20T00:58:48.203Z,64.03
2023-04-20T00:59:48.147Z,63.93
2023-04-20T01:00:48.133Z,64.03
2023-04-20T01:01:48.241Z,64.03
2023-04-20T01:02:48.219Z,64.03
2023-04-20T01:03:48.414Z,64.03
2023-04-20T01:04:48.104Z,63.93
2023-04-20T01:05:48.083Z,64.03
2023-04-20T01:06:48.078Z,64.03
2023-04-20T01:07:48.064Z,64.03
2023-04-20T01:08:48.070Z,64.03
2023-04-20T01:09:48.040Z,63.93
2023-04-20T01:10:48.060Z,64.03
2023-04-20T01:11:48.031Z,64.03
2023-04-20T01:12:48.009Z,64.03
2023-04-20T01:13:48.030Z,64.03
2023-04-20T01:14:47.985Z,63.93
2023-04-20T01:15:48.038Z,63.93
2023-04-20T01:16:47.990Z,63.93
2023-04-20T01:17:47.988Z,64.03
2023-04-20T01:18:47.946Z,64.03
2023-04-20T01:19:47.933Z,64.03
2023-04-20T01:20:47.952Z,64.03
2023-04-20T01:21:47.917Z,64.03
2023-04-20T01:22:47.934Z,64.03
2023-04-20T01:23:47.896Z,64.03
2023-04-20T01:24:47.894Z,64.03
2023-04-20T01:25:47.868Z,64.03
2023-04-20T01:26:47.881Z,63.93
2023-04-20T01:27:47.862Z,64.03
2023-04-20T01:28:47.864Z,64.03
2023-04-20T01:29:47.831Z,64.03
2023-04-20T01:30:47.816Z,64.03
2023-04-20T01:31:47.859Z,64.03
2023-04-20T01:32:47.814Z,64.03
2023-04-20T01:33:47.804Z,64.03
2023-04-20T01:34:47.794Z,64.03
2023-04-20T01:35:47.800Z,64.03
2023-04-20T01:36:47.848Z,64.03
2023-04-20T01:37:47.747Z,64.03
2023-04-20T01:38:47.735Z,63.93
2023-04-20T01:39:47.752Z,64.03
2023-04-20T01:40:47.714Z,64.03
2023-04-20T01:41:47.718Z,63.93
2023-04-20T01:42:47.712Z,63.93
2023-04-20T01:43:47.677Z,63.93
2023-04-20T01:44:47.666Z,63.93
2023-04-20T01:45:47.659Z,64.03
2023-04-20T01:46:47.703Z,63.93
2023-04-20T01:47:47.650Z,63.93
2023-04-20T01:48:47.633Z,64.03
2023-04-20T01:49:47.617Z,64.03
2023-04-20T01:50:47.620Z,63.93
2023-04-20T01:51:47.615Z,64.03
2023-04-20T01:52:47.588Z,63.93
2023-04-20T01:53:47.575Z,64.03
2023-04-20T01:54:47.562Z,64.03
2023-04-20T01:55:47.579Z,64.03
2023-04-20T01:56:47.545Z,64.03
2023-04-20T01:57:47.534Z,64.03
2023-04-20T01:58:47.615Z,64.03
2023-04-20T01:59:47.526Z,64.03
2023-04-20T02:00:47.528Z,63.93
2023-04-20T02:01:47.519Z,63.93
2023-04-20T02:02:47.540Z,63.93
2023-04-20T02:03:47.714Z,63.93
2023-04-20T02:04:47.482Z,63.93
2023-04-20T02:05:47.464Z,63.93
2023-04-20T02:06:47.435Z,64.03
2023-04-20T02:07:47.423Z,64.03
2023-04-20T02:08:47.416Z,63.93
2023-04-20T02:09:47.407Z,63.93
2023-04-20T02:10:47.412Z,63.93
2023-04-20T02:11:47.381Z,63.93
2023-04-20T02:12:47.368Z,63.93
2023-04-20T02:13:47.358Z,64.03
2023-04-20T02:14:47.374Z,63.93
2023-04-20T02:15:47.370Z,63.93
2023-04-20T02:16:47.360Z,63.93
2023-04-20T02:17:47.403Z,63.93
2023-04-20T02:18:47.317Z,63.93
2023-04-20T02:19:47.299Z,63.93
2023-04-20T02:20:47.288Z,63.82
2023-04-20T02:21:47.289Z,63.93
2023-04-20T02:22:47.269Z,63.82
2023-04-20T02:23:47.254Z,63.93
2023-04-20T02:24:47.244Z,63.93
2023-04-20T02:25:47.231Z,63.93
2023-04-20T02:26:47.245Z,63.82
2023-04-20T02:27:47.206Z,63.93
2023-04-20T02:28:47.194Z,63.93
2023-04-20T02:29:47.192Z,63.82
2023-04-20T02:30:47.218Z,63.82
2023-04-20T02:31:47.229Z,63.82
2023-04-20T02:32:47.214Z,63.82
2023-04-20T02:33:47.147Z,63.93
2023-04-20T02:34:47.129Z,63.93
2023-04-20T02:35:47.143Z,63.93
2023-04-20T02:36:47.115Z,63.93
2023-04-20T02:37:47.101Z,63.82
2023-04-20T02:38:47.094Z,63.93
2023-04-20T02:39:47.079Z,63.93
2023-04-20T02:40:47.088Z,63.93
2023-04-20T02:41:47.056Z,63.93
2023-04-20T02:42:47.048Z,63.93
2023-04-20T02:43:47.036Z,63.93
2023-04-20T02:44:47.044Z,63.93
2023-04-20T02:45:47.013Z,63.93
2023-04-20T02:46:47.121Z,63.93
2023-04-20T02:47:47.223Z,64.03
2023-04-20T02:48:46.982Z,63.93
2023-04-20T02:49:46.993Z,63.93
2023-04-20T02:50:46.960Z,63.93
2023-04-20T02:51:46.950Z,63.93
2023-04-20T02:52:46.941Z,63.82
2023-04-20T02:53:46.951Z,63.93
2023-04-20T02:54:46.939Z,63.93
2023-04-20T02:55:46.908Z,63.93
2023-04-20T02:56:46.906Z,63.93
2023-04-20T02:57:46.889Z,63.93
2023-04-20T02:58:46.879Z,63.93
2023-04-20T02:59:46.895Z,64.03
2023-04-20T03:00:46.858Z,63.93
2023-04-20T03:01:46.858Z,63.93
2023-04-20T03:02:47.035Z,64.03
2023-04-20T03:03:47.042Z,64.03
2023-04-20T03:04:46.933Z,64.03
2023-04-20T03:05:46.823Z,63.93
2023-04-20T03:06:46.803Z,63.93
2023-04-20T03:07:46.826Z,63.93
2023-04-20T03:08:46.781Z,63.82
2023-04-20T03:09:46.799Z,63.93
2023-04-20T03:10:46.805Z,63.93
2023-04-20T03:11:46.788Z,63.93
2023-04-20T03:12:46.773Z,63.93
2023-04-20T03:13:46.718Z,63.93
2023-04-20T03:14:46.728Z,63.93
2023-04-20T03:15:46.704Z,63.93
2023-04-20T03:16:46.741Z,63.93
2023-04-20T03:17:46.704Z,63.82
2023-04-20T03:18:46.697Z,63.93
2023-04-20T03:19:46.695Z,63.93
2023-04-20T03:20:46.646Z,63.93
2023-04-20T03:21:46.631Z,63.93
2023-04-20T03:22:46.625Z,63.93
2023-04-20T03:23:46.608Z,63.93
2023-04-20T03:24:46.595Z,63.93
2023-04-20T03:25:46.610Z,63.93
2023-04-20T03:26:46.582Z,63.93
2023-04-20T03:27:46.566Z,63.93
2023-04-20T03:28:46.578Z,63.93
2023-04-20T03:29:46.543Z,63.93
2023-04-20T03:30:46.549Z,63.93
2023-04-20T03:31:46.661Z,63.93
2023-04-20T03:32:46.583Z,63.93
2023-04-20T03:33:46.500Z,63.93
2023-04-20T03:34:46.533Z,63.93
2023-04-20T03:35:46.497Z,64.03
2023-04-20T03:36:46.469Z,63.93
2023-04-20T03:37:46.470Z,63.93
2023-04-20T03:38:46.453Z,63.93
2023-04-20T03:39:46.436Z,64.03
2023-04-20T03:40:46.448Z,64.03
2023-04-20T03:41:46.427Z,64.03
2023-04-20T03:42:46.408Z,63.93
2023-04-20T03:43:46.403Z,64.03
2023-04-20T03:44:46.380Z,63.93
2023-04-20T03:45:46.580Z,63.93
2023-04-20T03:46:46.449Z,63.93
2023-04-20T03:47:46.405Z,63.93
2023-04-20T03:48:46.387Z,64.03
2023-04-20T03:49:46.329Z,64.03
2023-04-20T03:50:46.367Z,64.03
2023-04-20T03:51:46.308Z,64.03
2023-04-20T03:52:46.444Z,63.93
2023-04-20T03:53:46.284Z,64.03
2023-04-20T03:54:46.296Z,64.03
2023-04-20T03:55:46.271Z,63.93
2023-04-20T03:56:46.264Z,64.03
2023-04-20T03:57:46.243Z,64.03
2023-04-20T03:58:46.241Z,63.93
2023-04-20T03:59:46.227Z,64.03
2023-04-20T04:00:46.240Z,64.03
2023-04-20T04:01:46.200Z,64.03
2023-04-20T04:02:46.399Z,64.03
2023-04-20T04:03:46.417Z,64.03
2023-04-20T04:04:46.295Z,63.93
2023-04-20T04:05:46.201Z,64.03
2023-04-20T04:06:46.244Z,64.03
2023-04-20T04:07:46.149Z,64.03
2023-04-20T04:08:46.156Z,64.03
2023-04-20T04:09:46.119Z,63.93
2023-04-20T04:10:46.124Z,63.93
2023-04-20T04:11:46.099Z,64.03
2023-04-20T04:12:46.090Z,63.93
2023-04-20T04:13:46.071Z,63.93
2023-04-20T04:14:46.109Z,64.03
2023-04-20T04:15:46.052Z,63.93
2023-04-20T04:16:46.112Z,64.03
2023-04-20T04:17:46.114Z,64.03
2023-04-20T04:18:46.042Z,64.03
2023-04-20T04:19:46.029Z,64.13
2023-04-20T04:20:46.007Z,64.03
2023-04-20T04:21:45.995Z,64.03
2023-04-20T04:22:46.004Z,64.03
2023-04-20T04:23:45.967Z,64.03
2023-04-20T04:24:45.984Z,64.03
2023-04-20T04:25:45.988Z,64.03
2023-04-20T04:26:45.934Z,64.03
2023-04-20T04:27:45.928Z,64.03
2023-04-20T04:28:45.932Z,64.03
2023-04-20T04:29:45.920Z,64.03
2023-04-20T04:30:45.897Z,63.93
2023-04-20T04:31:45.939Z,64.03
2023-04-20T04:32:45.910Z,64.03
2023-04-20T04:33:45.860Z,64.03
2023-04-20T04:34:45.865Z,64.03
2023-04-20T04:35:45.882Z,64.03
2023-04-20T04:36:45.826Z,64.03
2023-04-20T04:37:45.821Z,64.03
2023-04-20T04:38:45.830Z,63.93
2023-04-20T04:39:45.795Z,64.03
2023-04-20T04:40:45.877Z,64.03
2023-04-20T04:41:45.800Z,63.93
2023-04-20T04:42:45.762Z,63.93
2023-04-20T04:43:45.761Z,64.03
2023-04-20T04:44:45.751Z,64.03
2023-04-20T04:45:45.729Z,64.13
2023-04-20T04:46:45.889Z,64.03
2023-04-20T04:47:45.748Z,64.03
2023-04-20T04:48:45.706Z,64.03
2023-04-20T04:49:45.697Z,64.03
2023-04-20T04:50:45.681Z,64.03
2023-04-20T04:51:45.702Z,64.03
2023-04-20T04:52:45.661Z,64.13
2023-04-20T04:53:45.653Z,64.03
2023-04-20T04:54:45.670Z,64.03
2023-04-20T04:55:45.625Z,64.03
2023-04-20T04:56:45.617Z,64.03
2023-04-20T04:57:45.628Z,64.13
2023-04-20T04:58:45.601Z,64.03
2023-04-20T04:59:45.591Z,64.03
2023-04-20T05:00:45.572Z,64.03
2023-04-20T05:01:45.622Z,64.03
2023-04-20T05:02:45.749Z,64.03
2023-04-20T05:03:45.660Z,64.03
2023-04-20T05:04:45.722Z,64.03
2023-04-20T05:05:45.523Z,64.03
2023-04-20T05:06:45.509Z,64.03
2023-04-20T05:07:45.516Z,64.03
2023-04-20T05:08:45.486Z,64.03
2023-04-20T05:09:45.477Z,64.03
2023-04-20T05:10:45.510Z,64.03
2023-04-20T05:11:45.452Z,64.03
2023-04-20T05:12:45.442Z,64.03
2023-04-20T05:13:45.454Z,64.03
2023-04-20T05:14:45.421Z,64.03
2023-04-20T05:15:45.414Z,64.03
2023-04-20T05:16:45.473Z,63.93
2023-04-20T05:17:45.414Z,64.03
2023-04-20T05:18:45.400Z,64.03
2023-04-20T05:19:45.369Z,64.03
2023-04-20T05:20:45.361Z,64.03
2023-04-20T05:21:45.348Z,64.03
2023-04-20T05:22:45.362Z,64.03
2023-04-20T05:23:45.322Z,63.93
2023-04-20T05:24:45.314Z,63.93
2023-04-20T05:25:45.355Z,64.03
2023-04-20T05:26:45.312Z,64.03
2023-04-20T05:27:45.300Z,64.03
2023-04-20T05:28:45.271Z,64.03
2023-04-20T05:29:45.261Z,64.03
2023-04-20T05:30:45.252Z,64.03
2023-04-20T05:31:45.293Z,64.03
2023-04-20T05:32:45.269Z,64.03
2023-04-20T05:33:45.242Z,64.03
2023-04-20T05:34:45.204Z,64.03
2023-04-20T05:35:45.199Z,64.03
2023-04-20T05:36:45.182Z,63.93
2023-04-20T05:37:45.192Z,64.03
2023-04-20T05:38:45.166Z,64.13
2023-04-20T05:39:45.151Z,64.03
2023-04-20T05:40:45.148Z,64.03
2023-04-20T05:41:45.146Z,64.03
2023-04-20T05:42:45.172Z,64.13
2023-04-20T05:43:45.114Z,64.13
2023-04-20T05:44:45.097Z,64.03
2023-04-20T05:45:45.124Z,64.03
2023-04-20T05:46:45.088Z,64.03
2023-04-20T05:47:45.115Z,64.03
2023-04-20T05:48:45.075Z,64.03
2023-04-20T05:49:45.044Z,64.03
2023-04-20T05:50:45.038Z,64.03
2023-04-20T05:51:45.052Z,64.03
2023-04-20T05:52:45.033Z,64.13
2023-04-20T05:53:45.031Z,64.13
2023-04-20T05:54:45.011Z,64.13
2023-04-20T05:55:44.986Z,64.13
2023-04-20T05:56:44.976Z,64.03
2023-04-20T05:57:44.978Z,64.03
2023-04-20T05:58:44.978Z,63.93
2023-04-20T05:59:44.938Z,64.03
2023-04-20T06:00:44.942Z,64.03
2023-04-20T06:01:44.919Z,64.03
2023-04-20T06:02:45.100Z,63.93
2023-04-20T06:03:45.081Z,63.93
2023-04-20T06:04:45.086Z,64.13
2023-04-20T06:05:45.059Z,64.03
2023-04-20T06:06:44.870Z,63.93
2023-04-20T06:07:44.878Z,63.93
2023-04-20T06:08:44.847Z,64.03
2023-04-20T06:09:44.833Z,64.13
2023-04-20T06:10:44.853Z,64.13
2023-04-20T06:11:44.820Z,64.13
2023-04-20T06:12:44.805Z,64.13
2023-04-20T06:13:44.794Z,64.13
2023-04-20T06:14:52.471Z,64.23
2023-04-20T06:15:44.782Z,64.23
2023-04-20T06:16:44.784Z,64.23
2023-04-20T06:17:44.778Z,64.33
2023-04-20T06:18:44.737Z,64.33
2023-04-20T06:19:44.748Z,64.33
2023-04-20T06:20:44.725Z,64.33
2023-04-20T06:21:44.709Z,64.33
2023-04-20T06:22:44.697Z,64.33
2023-04-20T06:23:44.707Z,64.33
2023-04-20T06:24:44.683Z,64.33
2023-04-20T06:25:44.673Z,64.33
2023-04-20T06:26:44.660Z,64.33
2023-04-20T06:27:44.656Z,64.33
2023-04-20T06:28:44.649Z,64.43
2023-04-20T06:29:44.632Z,64.43
2023-04-20T06:30:44.643Z,64.43
2023-04-20T06:31:44.756Z,64.43
2023-04-20T06:32:44.619Z,64.33
2023-04-20T06:33:44.602Z,64.33
2023-04-20T06:34:44.563Z,64.33
2023-04-20T06:35:44.555Z,64.33
2023-04-20T06:36:44.549Z,64.33
2023-04-20T06:37:44.529Z,64.33
2023-04-20T06:38:44.544Z,64.33
2023-04-20T06:39:44.508Z,64.33
2023-04-20T06:40:44.505Z,64.50
2023-04-20T06:41:44.503Z,64.53
2023-04-20T06:42:44.477Z,64.50
2023-04-20T06:43:44.484Z,64.50
2023-04-20T06:44:44.478Z,64.50
2023-04-20T06:45:44.444Z,64.50
2023-04-20T06:46:44.635Z,64.50
2023-04-20T06:47:44.454Z,64.50
2023-04-20T06:48:44.411Z,64.50
2023-04-20T06:49:44.448Z,64.50
2023-04-20T06:50:44.418Z,64.40
2023-04-20T06:51:44.381Z,64.50
2023-04-20T06:52:44.366Z,64.50
2023-04-20T06:53:44.361Z,64.50
2023-04-20T06:54:44.368Z,64.61
2023-04-20T06:55:44.336Z,64.50
2023-04-20T06:56:44.323Z,64.20
2023-04-20T06:57:44.335Z,64.30
2023-04-20T06:58:44.306Z,64.30
2023-04-20T06:59:44.291Z,64.30
2023-04-20T07:00:44.286Z,64.40
2023-04-20T07:01:44.319Z,64.30
2023-04-20T07:02:44.437Z,64.40
2023-04-20T07:03:44.589Z,64.50
2023-04-20T07:04:44.305Z,64.30
2023-04-20T07:05:44.232Z,64.30
2023-04-20T07:06:44.220Z,64.40
2023-04-20T07:07:44.240Z,64.61
2023-04-20T07:08:44.194Z,64.61
2023-04-20T07:09:44.183Z,64.50
2023-04-20T07:10:44.172Z,64.40
2023-04-20T07:11:44.167Z,64.40
2023-04-20T07:12:44.310Z,64.40
2023-04-20T07:13:44.180Z,64.50
2023-04-20T07:14:44.130Z,64.40
2023-04-20T07:15:44.125Z,64.50
2023-04-20T07:16:44.161Z,64.61
2023-04-20T07:17:44.149Z,64.70
2023-04-20T07:18:44.110Z,64.81
2023-04-20T07:19:44.093Z,64.90
2023-04-20T07:20:44.100Z,65.01
2023-04-20T07:21:44.054Z,65.01
2023-04-20T07:22:44.045Z,65.11
2023-04-20T07:23:45.113Z,65.21
2023-04-20T07:24:44.023Z,65.31
2023-04-20T07:25:44.032Z,65.41
2023-04-20T07:26:44.007Z,64.90
2023-04-20T07:27:43.998Z,64.61
2023-04-20T07:28:43.981Z,64.61
2023-04-20T07:29:43.985Z,64.50
2023-04-20T07:30:43.988Z,64.50
2023-04-20T07:31:43.990Z,64.50
2023-04-20T07:32:43.965Z,64.40
2023-04-20T07:33:43.926Z,64.61
2023-04-20T07:34:43.954Z,64.70
2023-04-20T07:35:43.927Z,64.61
2023-04-20T07:36:43.927Z,64.40
2023-04-20T07:37:43.907Z,64.40
2023-04-20T07:38:43.888Z,64.50
2023-04-20T07:39:43.864Z,64.61
2023-04-20T07:40:43.878Z,64.61
2023-04-20T07:41:43.855Z,64.61
2023-04-20T07:42:43.854Z,64.70
2023-04-20T07:43:43.820Z,64.81
2023-04-20T07:44:43.819Z,64.81
2023-04-20T07:45:43.847Z,64.90
2023-04-20T07:46:43.822Z,64.50
2023-04-20T07:47:43.817Z,64.50
2023-04-20T07:48:43.935Z,64.50
2023-04-20T07:49:43.757Z,64.50
2023-04-20T07:50:43.788Z,64.50
2023-04-20T07:51:43.746Z,64.50
2023-04-20T07:52:43.746Z,64.50
2023-04-20T07:53:43.723Z,64.40
2023-04-20T07:54:43.706Z,64.40
2023-04-20T07:55:43.700Z,64.30
2023-04-20T07:56:43.689Z,64.30
2023-04-20T07:57:43.700Z,64.30
2023-04-20T07:58:43.661Z,64.30
2023-04-20T07:59:43.652Z,64.40
2023-04-20T08:00:43.641Z,64.40
2023-04-20T08:01:43.646Z,64.40
2023-04-20T08:02:43.725Z,64.40
2023-04-20T08:03:43.774Z,64.50
2023-04-20T08:04:43.836Z,64.50
2023-04-20T08:05:43.663Z,64.50
2023-04-20T08:06:43.786Z,64.50
2023-04-20T08:07:43.587Z,64.50
2023-04-20T08:08:43.555Z,64.50
2023-04-20T08:09:43.556Z,64.50
2023-04-20T08:10:43.533Z,64.50
2023-04-20T08:11:43.543Z,64.50
2023-04-20T08:12:43.542Z,64.50
2023-04-20T08:13:43.505Z,64.50
2023-04-20T08:14:43.492Z,64.50
2023-04-20T08:15:43.502Z,64.50
2023-04-20T08:16:43.471Z,64.50
2023-04-20T08:17:43.523Z,64.50
2023-04-20T08:18:43.481Z,64.50
2023-04-20T08:19:44.717Z,64.50
2023-04-20T08:20:43.432Z,64.50
2023-04-20T08:21:43.417Z,64.61
2023-04-20T08:22:43.539Z,64.50
2023-04-20T08:23:43.411Z,64.50
2023-04-20T08:24:43.406Z,64.61
2023-04-20T08:25:43.371Z,64.61
2023-04-20T08:26:43.415Z,64.61
2023-04-20T08:27:43.353Z,64.61
2023-04-20T08:28:43.340Z,64.61
2023-04-20T08:29:43.351Z,64.50
2023-04-20T08:30:43.322Z,64.61
2023-04-20T08:31:43.406Z,64.50
2023-04-20T08:32:43.566Z,64.50
2023-04-20T08:33:43.296Z,64.40
2023-04-20T08:34:43.297Z,64.50
2023-04-20T08:35:43.285Z,64.50
2023-04-20T08:36:43.263Z,64.50
2023-04-20T08:37:43.248Z,64.50
2023-04-20T08:38:43.370Z,64.50
2023-04-20T08:39:43.266Z,64.50
2023-04-20T08:40:43.210Z,64.40
2023-04-20T08:41:43.202Z,64.50
2023-04-20T08:42:43.195Z,64.50
2023-04-20T08:43:43.176Z,64.50
2023-04-20T08:44:43.184Z,64.50
2023-04-20T08:45:43.155Z,64.50
2023-04-20T08:46:43.185Z,64.50
2023-04-20T08:47:43.192Z,64.40
2023-04-20T08:48:43.145Z,64.50
2023-04-20T08:49:43.121Z,64.50
2023-04-20T08:50:43.103Z,64.40
2023-04-20T08:51:43.116Z,64.50
2023-04-20T08:52:43.082Z,64.50
2023-04-20T08:53:43.071Z,64.40
2023-04-20T08:54:53.272Z,64.40
2023-04-20T08:55:44.058Z,64.40
2023-04-20T08:56:43.048Z,64.40
2023-04-20T08:57:43.031Z,64.40
2023-04-20T08:58:43.019Z,64.40
2023-04-20T08:59:43.031Z,64.40
2023-04-20T09:00:43.016Z,64.40
2023-04-20T09:01:43.058Z,64.40
2023-04-20T09:02:43.139Z,64.50
2023-04-20T09:03:43.155Z,64.61
2023-04-20T09:04:43.086Z,64.61
2023-04-20T09:05:42.939Z,64.61
2023-04-20T09:06:42.958Z,64.50
2023-04-20T09:07:42.922Z,64.61
2023-04-20T09:08:42.904Z,64.61
2023-04-20T09:09:42.897Z,64.70
2023-04-20T09:10:42.954Z,64.81
2023-04-20T09:11:42.872Z,64.90
2023-04-20T09:12:42.897Z,64.90
2023-04-20T09:13:42.853Z,65.01
2023-04-20T09:14:42.851Z,64.90
2023-04-20T09:15:42.865Z,65.01
2023-04-20T09:16:42.833Z,65.01
2023-04-20T09:17:42.837Z,65.01
2023-04-20T09:18:42.799Z,65.01
2023-04-20T09:19:42.801Z,65.11
2023-04-20T09:20:42.780Z,65.11
2023-04-20T09:21:42.799Z,65.21
2023-04-20T09:22:42.756Z,65.11
2023-04-20T09:23:42.764Z,65.11
2023-04-20T09:24:42.739Z,65.11
2023-04-20T09:25:42.734Z,65.11
2023-04-20T09:26:42.766Z,65.11
2023-04-20T09:27:42.746Z,65.21
2023-04-20T09:28:42.699Z,65.21
2023-04-20T09:29:42.685Z,65.21
2023-04-20T09:30:42.673Z,65.21
2023-04-20T09:31:42.724Z,65.21
2023-04-20T09:32:42.684Z,65.11
2023-04-20T09:33:42.635Z,65.11
2023-04-20T09:34:42.633Z,64.90
2023-04-20T09:35:42.613Z,65.01
2023-04-20T09:36:42.604Z,64.70
2023-04-20T09:37:42.610Z,64.70
2023-04-20T09:38:42.583Z,64.61
2023-04-20T09:39:42.569Z,64.61
2023-04-20T09:40:42.567Z,64.61
2023-04-20T09:41:42.549Z,64.61
2023-04-20T09:42:42.588Z,64.70
2023-04-20T09:43:42.526Z,64.61
2023-04-20T09:44:42.516Z,64.61
2023-04-20T09:45:42.559Z,64.61
2023-04-20T09:46:42.506Z,64.61
2023-04-20T09:47:42.518Z,64.61
2023-04-20T09:48:42.471Z,64.61
2023-04-20T09:49:42.465Z,64.61
2023-04-20T09:50:49.852Z,64.61
2023-04-20T09:51:43.466Z,64.61
2023-04-20T09:52:42.431Z,64.61
2023-04-20T09:53:42.421Z,64.61
2023-04-20T09:54:42.407Z,64.70
2023-04-20T09:55:42.405Z,64.70
2023-04-20T09:56:42.397Z,64.61
2023-04-20T09:57:42.394Z,64.61
2023-04-20T09:58:42.397Z,64.61
2023-04-20T09:59:42.370Z,64.61
2023-04-20T10:00:42.346Z,64.61
2023-04-20T10:01:42.466Z,64.70
2023-04-20T10:02:42.418Z,64.61
2023-04-20T10:03:42.430Z,64.70
2023-04-20T10:04:42.459Z,64.70
2023-04-20T10:05:42.291Z,64.61
2023-04-20T10:06:42.283Z,64.61
2023-04-20T10:07:42.272Z,64.70
2023-04-20T10:08:42.296Z,64.61
2023-04-20T10:09:42.265Z,64.61
2023-04-20T10:10:42.241Z,64.61
2023-04-20T10:11:52.503Z,64.61
2023-04-20T10:12:43.212Z,64.61
2023-04-20T10:13:42.206Z,64.61
2023-04-20T10:14:42.247Z,64.61
2023-04-20T10:15:42.188Z,64.61
2023-04-20T10:16:42.207Z,64.61
2023-04-20T10:17:42.231Z,64.61
2023-04-20T10:18:42.292Z,64.61
2023-04-20T10:19:42.164Z,64.61
2023-04-20T10:20:42.152Z,64.61
2023-04-20T10:21:42.118Z,64.61
2023-04-20T10:22:42.105Z,64.61
2023-04-20T10:23:42.098Z,64.61
2023-04-20T10:24:42.114Z,64.61
2023-04-20T10:25:42.080Z,64.81
2023-04-20T10:26:42.067Z,64.90
2023-04-20T10:27:42.060Z,64.81
2023-04-20T10:28:42.169Z,64.70
2023-04-20T10:29:42.052Z,64.61
2023-04-20T10:30:42.152Z,64.70
2023-04-20T10:31:42.114Z,64.70
2023-04-20T10:32:42.012Z,64.61
2023-04-20T10:33:41.988Z,64.61
2023-04-20T10:34:41.977Z,64.61
2023-04-20T10:35:43.321Z,64.70
2023-04-20T10:36:41.956Z,64.70
2023-04-20T10:37:41.948Z,64.61
2023-04-20T10:38:41.931Z,64.61
2023-04-20T10:39:41.925Z,64.61
2023-04-20T10:40:41.930Z,64.61
2023-04-20T10:41:41.910Z,64.61
2023-04-20T10:42:41.923Z,64.61
2023-04-20T10:43:41.905Z,64.61
2023-04-20T10:44:41.869Z,64.61
2023-04-20T10:45:41.883Z,64.61
2023-04-20T10:46:41.871Z,64.61
2023-04-20T10:47:41.910Z,64.61
2023-04-20T10:48:41.827Z,64.70
2023-04-20T10:49:41.828Z,64.70
2023-04-20T10:50:41.833Z,64.70
2023-04-20T10:51:41.796Z,64.70
2023-04-20T10:52:41.794Z,64.70
2023-04-20T10:53:41.832Z,64.70
2023-04-20T10:54:41.771Z,64.70
2023-04-20T10:55:41.754Z,64.70
2023-04-20T10:56:41.746Z,64.70
2023-04-20T10:57:41.732Z,64.70
2023-04-20T10:58:41.750Z,64.70
2023-04-20T10:59:41.711Z,64.70
2023-04-20T11:00:41.712Z,64.81
2023-04-20T11:01:41.746Z,64.81
2023-04-20T11:02:41.800Z,64.90
2023-04-20T11:03:41.729Z,65.01
2023-04-20T11:04:41.690Z,65.01
2023-04-20T11:05:41.647Z,65.01
2023-04-20T11:06:41.637Z,65.11
2023-04-20T11:07:41.635Z,65.11
2023-04-20T11:08:41.714Z,65.11
2023-04-20T11:09:41.620Z,65.11
2023-04-20T11:10:41.596Z,65.11
2023-04-20T11:11:41.581Z,65.01
2023-04-20T11:12:41.597Z,65.01
2023-04-20T11:13:41.571Z,65.01
2023-04-20T11:14:41.572Z,65.11
2023-04-20T11:15:41.537Z,65.11
2023-04-20T11:16:51.385Z,65.21
2023-04-20T11:17:42.565Z,65.21
2023-04-20T11:18:41.543Z,65.21
2023-04-20T11:19:41.495Z,65.21
2023-04-20T11:20:41.501Z,65.21
2023-04-20T11:21:41.510Z,65.21
2023-04-20T11:22:41.482Z,65.21
2023-04-20T11:23:41.453Z,65.21
2023-04-20T11:24:41.477Z,65.18
2023-04-20T11:25:41.429Z,65.21
2023-04-20T11:26:41.441Z,65.18
2023-04-20T11:27:41.431Z,65.18
2023-04-20T11:28:41.398Z,65.18
2023-04-20T11:29:41.393Z,65.21
2023-04-20T11:30:41.422Z,65.18
2023-04-20T11:31:41.453Z,65.18
2023-04-20T11:32:41.495Z,65.18
2023-04-20T11:33:41.366Z,65.08
2023-04-20T11:34:41.466Z,65.08
2023-04-20T11:35:41.325Z,64.98
2023-04-20T11:36:41.317Z,64.98
2023-04-20T11:37:41.335Z,65.08
2023-04-20T11:38:41.289Z,65.08
2023-04-20T11:39:41.280Z,65.18
2023-04-20T11:40:41.270Z,65.18
2023-04-20T11:41:41.260Z,65.31
2023-04-20T11:42:41.245Z,65.28
2023-04-20T11:43:41.254Z,65.38
2023-04-20T11:44:41.252Z,65.38
2023-04-20T11:45:41.249Z,65.38
2023-04-20T11:46:41.209Z,65.38
2023-04-20T11:47:41.393Z,65.28
2023-04-20T11:48:41.183Z,65.28
2023-04-20T11:49:41.173Z,65.28
2023-04-20T11:50:42.526Z,65.28
2023-04-20T11:51:41.155Z,65.28
2023-04-20T11:52:41.160Z,65.38
2023-04-20T11:53:41.127Z,65.48
2023-04-20T11:54:41.116Z,65.58
2023-04-20T11:55:41.106Z,65.58
2023-04-20T11:56:42.373Z,65.58
2023-04-20T11:57:41.137Z,65.58
2023-04-20T11:58:41.078Z,65.58
2023-04-20T11:59:41.063Z,65.68
2023-04-20T12:00:41.053Z,65.68
2023-04-20T12:01:41.046Z,65.68
2023-04-20T12:02:41.210Z,65.68
2023-04-20T12:03:41.183Z,65.68
2023-04-20T12:04:41.275Z,65.78
2023-04-20T12:05:41.049Z,65.78
2023-04-20T12:06:41.147Z,65.78
2023-04-20T12:07:40.980Z,65.78
2023-04-20T12:08:40.988Z,65.88
2023-04-20T12:09:40.967Z,65.99
2023-04-20T12:10:40.944Z,65.88
2023-04-20T12:11:40.948Z,65.78
2023-04-20T12:12:40.964Z,65.68
2023-04-20T12:13:40.960Z,65.68
2023-04-20T12:14:40.904Z,65.78
2023-04-20T12:15:40.973Z,65.78
2023-04-20T12:16:40.878Z,65.78
2023-04-20T12:17:40.894Z,65.68
2023-04-20T12:18:40.856Z,65.78
2023-04-20T12:19:40.869Z,65.68
2023-04-20T12:20:40.835Z,65.68
2023-04-20T12:21:40.823Z,65.68
2023-04-20T12:22:41.022Z,65.68
2023-04-20T12:23:40.807Z,65.68
2023-04-20T12:24:40.815Z,65.68
2023-04-20T12:25:40.788Z,65.68
2023-04-20T12:26:40.773Z,65.68
2023-04-20T12:27:40.761Z,65.68
2023-04-20T12:28:40.752Z,65.38
2023-04-20T12:29:40.767Z,65.38
2023-04-20T12:30:40.728Z,65.38
2023-04-20T12:31:40.786Z,65.38
2023-04-20T12:32:40.753Z,65.28
2023-04-20T12:33:40.701Z,65.28
2023-04-20T12:34:40.705Z,65.28
2023-04-20T12:35:40.679Z,65.28
2023-04-20T12:36:40.661Z,65.28
2023-04-20T12:37:40.670Z,65.18
2023-04-20T12:38:40.667Z,64.98
2023-04-20T12:39:40.648Z,64.98
2023-04-20T12:40:40.633Z,64.87
2023-04-20T12:41:40.609Z,64.78
2023-04-20T12:42:40.594Z,64.67
2023-04-20T12:43:40.602Z,64.58
2023-04-20T12:44:40.573Z,64.67
2023-04-20T12:45:40.563Z,64.58
2023-04-20T12:46:40.606Z,64.58
2023-04-20T12:47:40.630Z,64.58
2023-04-20T12:48:40.533Z,64.78
2023-04-20T12:49:40.519Z,64.78
2023-04-20T12:50:40.511Z,64.87
2023-04-20T12:51:40.525Z,64.87
2023-04-20T12:52:40.510Z,64.87